Elite — PHDA — position and weather

sailwx.info

Track history (hours):
 
Tides and Currents Weather Stations Pressure Air Temp Water Temp Dewpoint Dewpoint Depression Visibility Wind Speed Wind Dir Waves Ship Positions

Elite

Last reported at 2018-Jun-23 21:30 UTC. Time now 2018-Jun-23 21:43 UTC.
Position N 51°59' E 004°02'.

Length 150 m; draft 7.5 m.

Type: Ship (hazmat cat A). MMSI: 246363000.

Date/timePositionNaut miles runAvg speedWind from/ knotsBaromVisibWave heightAir tempDewpointWater temp
2018-Jun-23 21:30N 51°59' E 004°02'0 0.0
2018-Jun-23 21:00N 51°59' E 004°02'0 0.0
2018-Jun-23 20:30N 51°59' E 004°02'0 0.0
2018-Jun-23 20:00N 51°59' E 004°02'0 0.0
2018-Jun-23 19:30N 51°59' E 004°02'0 0.0
2018-Jun-23 19:00N 51°59' E 004°02'0 0.0
2018-Jun-23 18:30N 51°59' E 004°02'0 0.0
2018-Jun-23 18:00N 51°59' E 004°02'0 0.0
2018-Jun-23 17:30N 51°59' E 004°02'0 0.0
2018-Jun-23 17:00N 51°59' E 004°02'0 0.0
2018-Jun-23 16:30N 51°59' E 004°02'1 2.9
2018-Jun-23 16:00N 51°58' E 004°04'1 1.9
2018-Jun-23 15:30N 51°57' E 004°04'0 0.0
2018-Jun-23 15:00N 51°57' E 004°04'0 0.0
2018-Jun-23 14:30N 51°57' E 004°04'0 0.0
2018-Jun-23 14:00N 51°57' E 004°04'0 0.0
2018-Jun-23 13:30N 51°57' E 004°04'0 0.0
2018-Jun-23 13:00N 51°57' E 004°04'0 0.0
2018-Jun-23 12:30N 51°57' E 004°04'1 1.2
2018-Jun-23 12:00N 51°58' E 004°04'0 0.0
2018-Jun-23 11:30N 51°58' E 004°04'0 0.0
2018-Jun-23 11:00N 51°58' E 004°04'0 0.0
2018-Jun-23 10:30N 51°58' E 004°04'0 0.0
2018-Jun-23 10:00N 51°58' E 004°04'0 0.0
2018-Jun-23 09:30N 51°58' E 004°04'0 0.1
2018-Jun-23 09:00N 51°58' E 004°04'0 0.3
2018-Jun-23 08:30N 51°58' E 004°04'0 0.8
2018-Jun-23 08:00N 51°57' E 004°05'1 1.7
2018-Jun-23 07:30N 51°57' E 004°04'0 0.0
2018-Jun-23 07:00N 51°57' E 004°04'0 0.0
2018-Jun-23 06:30N 51°57' E 004°04'0 0.0
2018-Jun-23 06:00N 51°57' E 004°04'0 0.0
2018-Jun-23 05:30N 51°57' E 004°04'0 0.0
2018-Jun-23 05:00N 51°57' E 004°04'0 0.0
2018-Jun-23 04:30N 51°57' E 004°04'0 0.0
2018-Jun-23 04:00N 51°57' E 004°04'0 0.0
2018-Jun-23 03:30N 51°57' E 004°04'0 0.0
2018-Jun-23 03:00N 51°57' E 004°04'0 0.0
2018-Jun-23 02:30N 51°57' E 004°04'0 0.0
2018-Jun-23 02:00N 51°57' E 004°04'0 0.0
2018-Jun-23 01:30N 51°57' E 004°04'0 0.0
2018-Jun-23 01:00N 51°57' E 004°04'0 0.0
2018-Jun-23 00:30N 51°57' E 004°04'0 0.0
2018-Jun-23 00:00N 51°57' E 004°04'0 0.0
2018-Jun-22 23:30N 51°57' E 004°04'0 0.0
2018-Jun-22 23:00N 51°57' E 004°04'0 0.0
2018-Jun-22 22:30N 51°57' E 004°04'0 0.0
2018-Jun-22 22:00N 51°57' E 004°04'0 0.0
2018-Jun-22 21:30N 51°57' E 004°04'0 0.0
2018-Jun-22 21:00N 51°57' E 004°04'0 0.0
2018-Jun-22 20:30N 51°57' E 004°04'0 0.1
2018-Jun-22 20:00N 51°57' E 004°04'2 4.6
2018-Jun-22 19:30N 51°59' E 004°05'611.3
2018-Jun-22 19:01N 51°56' E 004°13'510.2
2018-Jun-22 18:30N 51°54' E 004°20'3 5.6
2018-Jun-22 18:00N 51°53' E 004°25'0 1.0
2018-Jun-22 17:30N 51°53' E 004°25'0 0.0
2018-Jun-22 17:01N 51°53' E 004°25'0 0.0
2018-Jun-22 16:30N 51°53' E 004°25'0 0.0
2018-Jun-22 16:01N 51°53' E 004°25'0 0.0
2018-Jun-22 15:31N 51°53' E 004°25'0 0.0
2018-Jun-22 15:01N 51°53' E 004°25'0 0.0
2018-Jun-22 14:30N 51°53' E 004°25'0 0.0
2018-Jun-22 14:00N 51°53' E 004°25'0 0.0
2018-Jun-22 13:31N 51°53' E 004°25'0 0.0
2018-Jun-22 13:01N 51°53' E 004°25'0 0.0
2018-Jun-22 12:31N 51°53' E 004°25'0 0.0
2018-Jun-22 12:01N 51°53' E 004°25'0 0.0
2018-Jun-22 11:31N 51°53' E 004°25'0 0.0
2018-Jun-22 11:01N 51°53' E 004°25'0 0.0
2018-Jun-22 10:30N 51°53' E 004°25'0 0.0
2018-Jun-22 10:01N 51°53' E 004°25'0 0.0
2018-Jun-22 09:31N 51°53' E 004°25'0 0.0
2018-Jun-22 09:01N 51°53' E 004°25'0 0.0
2018-Jun-22 08:31N 51°53' E 004°25'0 0.0
2018-Jun-22 08:01N 51°53' E 004°25'0 0.0
2018-Jun-22 07:31N 51°53' E 004°25'0 0.0
2018-Jun-22 07:01N 51°53' E 004°25'0 0.0
2018-Jun-22 06:31N 51°53' E 004°25'0 0.0
2018-Jun-22 06:01N 51°53' E 004°25'0 0.0
2018-Jun-22 05:31N 51°53' E 004°25'0 0.7
2018-Jun-22 05:01N 51°53' E 004°25'0 0.0
2018-Jun-22 04:31N 51°53' E 004°25'0 0.0
2018-Jun-22 04:01N 51°53' E 004°25'0 0.0
2018-Jun-22 03:31N 51°53' E 004°25'0 0.0
2018-Jun-22 03:01N 51°53' E 004°25'0 0.0
2018-Jun-22 02:31N 51°53' E 004°25'0 0.0
2018-Jun-22 02:00N 51°53' E 004°25'0 0.0
2018-Jun-22 01:30N 51°53' E 004°25'0 0.0
2018-Jun-22 01:01N 51°53' E 004°25'0 0.0
2018-Jun-22 00:31N 51°53' E 004°25'0 0.0
2018-Jun-22 00:01N 51°53' E 004°25'0 0.0
2018-Jun-21 23:31N 51°53' E 004°25'0 0.0
2018-Jun-21 23:01N 51°53' E 004°25'0 0.0
2018-Jun-21 22:31N 51°53' E 004°25'0 0.0
2018-Jun-21 22:01N 51°53' E 004°25'0 0.0
2018-Jun-21 21:31N 51°53' E 004°25'0 0.0
2018-Jun-21 21:01N 51°53' E 004°25'0 0.0
2018-Jun-21 20:31N 51°53' E 004°25'1 2.5
2018-Jun-21 20:01N 51°54' E 004°25'1 1.9
2018-Jun-21 19:31N 51°54' E 004°26'0 0.0
2018-Jun-21 19:01N 51°54' E 004°26'0 0.0
2018-Jun-21 18:31N 51°54' E 004°26'0 0.0
2018-Jun-21 18:01N 51°54' E 004°26'0 0.0
2018-Jun-21 17:31N 51°54' E 004°26'0 0.0
2018-Jun-21 17:01N 51°54' E 004°26'0 0.0
2018-Jun-21 16:31N 51°54' E 004°26'0 0.0
2018-Jun-21 16:01N 51°54' E 004°26'0 0.0
2018-Jun-21 15:31N 51°54' E 004°26'0 0.0
2018-Jun-21 15:01N 51°54' E 004°26'0 0.0
2018-Jun-21 14:31N 51°54' E 004°26'0 0.0
2018-Jun-21 14:01N 51°54' E 004°26'0 0.0
2018-Jun-21 13:31N 51°54' E 004°26'1 1.3
2018-Jun-21 13:00N 51°54' E 004°26'4 7.8
2018-Jun-21 12:31N 51°53' E 004°19'4 7.5
2018-Jun-21 12:00N 51°51' E 004°23'5 9.5
2018-Jun-21 11:31N 51°50' E 004°31'4 8.2
2018-Jun-21 11:01N 51°48' E 004°37'4 8.1
2018-Jun-21 10:31N 51°44' E 004°38'3 6.3
2018-Jun-21 10:00N 51°41' E 004°36'0 0.4
2018-Jun-21 09:30N 51°41' E 004°36'0 0.0
2018-Jun-21 08:59N 51°41' E 004°36'0 0.0
2018-Jun-21 08:30N 51°41' E 004°36'0 0.0
2018-Jun-21 08:00N 51°41' E 004°36'0 0.0
2018-Jun-21 07:30N 51°41' E 004°36'0 0.0
2018-Jun-21 07:01N 51°41' E 004°36'0 0.0
2018-Jun-21 06:30N 51°41' E 004°36'0 0.0
2018-Jun-21 06:01N 51°41' E 004°36'0 0.0
2018-Jun-21 05:29N 51°41' E 004°36'0 0.0
2018-Jun-21 05:00N 51°41' E 004°36'0 0.0
2018-Jun-21 04:30N 51°41' E 004°36'0 0.0
2018-Jun-21 04:00N 51°41' E 004°36'0 0.0
2018-Jun-21 03:30N 51°41' E 004°36'0 0.0
2018-Jun-21 03:00N 51°41' E 004°36'0 0.0
2018-Jun-21 02:31N 51°41' E 004°36'0 0.0
2018-Jun-21 02:00N 51°41' E 004°36'0 0.0
2018-Jun-21 01:30N 51°41' E 004°36'0 0.0
2018-Jun-21 01:01N 51°41' E 004°36'0 0.0
2018-Jun-21 00:31N 51°41' E 004°36'0 0.0
2018-Jun-21 00:01N 51°41' E 004°36'0 0.0
2018-Jun-20 23:31N 51°41' E 004°36'0 0.0
2018-Jun-20 23:01N 51°41' E 004°36'0 0.0
2018-Jun-20 22:31N 51°41' E 004°36'0 0.0
2018-Jun-20 22:00N 51°41' E 004°36'0 0.0
2018-Jun-20 21:30N 51°41' E 004°36'0 0.0
2018-Jun-20 20:59N 51°41' E 004°36'0 0.0
2018-Jun-20 20:30N 51°41' E 004°36'0 0.0
2018-Jun-20 20:00N 51°41' E 004°36'0 0.0
2018-Jun-20 19:31N 51°41' E 004°36'0 0.0
2018-Jun-20 18:58N 51°41' E 004°36'0 0.0
2018-Jun-20 18:30N 51°41' E 004°36'0 0.0
2018-Jun-20 18:01N 51°41' E 004°36'0 0.0
2018-Jun-20 17:30N 51°41' E 004°36'0 0.0
2018-Jun-20 17:00N 51°41' E 004°36'0 0.0
2018-Jun-20 16:30N 51°41' E 004°36'0 0.0
2018-Jun-20 16:00N 51°41' E 004°36'0 0.0
2018-Jun-20 15:31N 51°41' E 004°36'0 0.0
2018-Jun-20 15:01N 51°41' E 004°36'0 0.0
2018-Jun-20 14:31N 51°41' E 004°36'0 0.0
2018-Jun-20 14:00N 51°41' E 004°36'0 0.0
2018-Jun-20 13:30N 51°41' E 004°36'0 0.0
2018-Jun-20 13:00N 51°41' E 004°36'0 0.0
2018-Jun-20 12:31N 51°41' E 004°36'0 0.0
2018-Jun-20 12:00N 51°41' E 004°36'0 0.0
2018-Jun-20 11:30N 51°41' E 004°36'1 1.4
2018-Jun-20 11:01N 51°42' E 004°35'3 5.2
2018-Jun-20 10:31N 51°44' E 004°38'5 9.0
2018-Jun-20 10:01N 51°48' E 004°36'510.2
2018-Jun-20 09:30N 51°50' E 004°29'611.1
2018-Jun-20 09:01N 51°52' E 004°20'4 7.7
2018-Jun-20 08:30N 51°54' E 004°16'611.7
2018-Jun-20 08:00N 51°58' E 004°08'816.5
2018-Jun-20 07:30N 52°01' E 003°55'510.5
2018-Jun-20 07:01N 51°59' E 003°47'816.1
2018-Jun-20 06:30N 51°58' E 003°34'816.3
2018-Jun-20 06:00N 51°56' E 003°21'916.2
2018-Jun-20 05:28N 51°53' E 003°08'815.8
2018-Jun-20 04:59N 51°51' E 002°56'815.9
2018-Jun-20 04:30N 51°49' E 002°44'816.2
2018-Jun-20 04:01N 51°50' E 002°31'816.3
2018-Jun-20 03:30N 51°47' E 002°19'816.3
2018-Jun-20 03:00N 51°43' E 002°08'816.3
2018-Jun-20 02:31N 51°38' E 001°57'816.1
2018-Jun-20 02:01N 51°33' E 001°47'815.7
2018-Jun-20 01:30N 51°29' E 001°37'510.6
2018-Jun-20 01:01N 51°25' E 001°31'713.5
2018-Jun-20 00:30N 51°31' E 001°28'611.8
2018-Jun-20 00:01N 51°35' E 001°21'612.2
2018-Jun-19 23:30N 51°34' E 001°12'917.1
2018-Jun-19 23:00N 51°30' E 000°60'917.2
2018-Jun-19 22:30N 51°29' E 000°46'917.8
2018-Jun-19 22:00N 51°30' E 000°32'713.9
2018-Jun-19 21:31N 51°27' E 000°22'1 2.9
2018-Jun-19 21:01N 51°28' E 000°20'0 0.0
2018-Jun-19 20:31N 51°28' E 000°20'0 0.0
2018-Jun-19 20:01N 51°28' E 000°20'0 0.0
2018-Jun-19 19:31N 51°28' E 000°20'0 0.0
2018-Jun-19 19:01N 51°28' E 000°20'0 0.0
2018-Jun-19 18:30N 51°28' E 000°20'0 0.0
2018-Jun-19 18:00N 51°28' E 000°20'0 0.0
2018-Jun-19 17:31N 51°28' E 000°20'0 0.0
2018-Jun-19 17:01N 51°28' E 000°20'0 0.0
2018-Jun-19 16:31N 51°28' E 000°20'0 0.0
2018-Jun-19 16:01N 51°28' E 000°20'0 0.0
2018-Jun-19 15:31N 51°28' E 000°20'0 0.0
2018-Jun-19 15:01N 51°28' E 000°20'0 0.0
2018-Jun-19 14:31N 51°28' E 000°20'0 0.0
2018-Jun-19 14:00N 51°28' E 000°20'0 0.0
2018-Jun-19 13:31N 51°28' E 000°20'0 0.0
2018-Jun-19 13:01N 51°28' E 000°20'0 0.0
2018-Jun-19 12:30N 51°28' E 000°20'0 0.0
2018-Jun-19 12:00N 51°28' E 000°20'0 0.0
2018-Jun-19 11:31N 51°28' E 000°20'0 0.0
2018-Jun-19 11:00N 51°28' E 000°20'0 0.0
2018-Jun-19 10:31N 51°28' E 000°20'0 0.0
2018-Jun-19 10:01N 51°28' E 000°20'0 0.0
2018-Jun-19 09:31N 51°28' E 000°20'0 0.0
2018-Jun-19 09:00N 51°28' E 000°20'1 1.5
2018-Jun-19 08:31N 51°27' E 000°21'4 8.3
2018-Jun-19 08:00N 51°28' E 000°27'510.9
2018-Jun-19 07:30N 51°30' E 000°35'713.5
2018-Jun-19 07:00N 51°29' E 000°46'713.8
2018-Jun-19 06:30N 51°29' E 000°57'713.9
2018-Jun-19 06:00N 51°29' E 001°08'714.9
2018-Jun-19 05:30N 51°29' E 001°20'815.5
2018-Jun-19 05:00N 51°25' E 001°31'612.2
2018-Jun-19 04:30N 51°20' E 001°36'714.4
2018-Jun-19 04:01N 51°13' E 001°38'713.1
2018-Jun-19 03:31N 51°06' E 001°40'917.8
2018-Jun-19 03:00N 50°59' E 001°31'917.6
2018-Jun-19 02:30N 50°52' E 001°24'1116.7
2018-Jun-19 01:52N 50°41' E 001°18'11814.8
2018-Jun-18 17:55N 50°04' W 001°37'1713.8
2018-Jun-18 16:42N 49°59' W 002°01'3013.9
2018-Jun-18 14:33N 49°50' W 002°46'6915.7
2018-Jun-18 10:09N 49°17' W 004°19'316.4
2018-Jun-18 10:00N 49°15' W 004°22'10517.1
2018-Jun-18 03:52N 47°58' W 006°10'617.9
2018-Jun-18 03:30N 47°53' W 006°15'917.4
2018-Jun-18 03:00N 47°45' W 006°22'917.0
2018-Jun-18 02:30N 47°38' W 006°28'39814.9
2018-Jun-16 23:49N 41°12' W 008°47'413.1
2018-Jun-16 23:31N 41°10' W 008°42'2 3.6
2018-Jun-16 22:57N 41°12' W 008°41'0 0.0
2018-Jun-16 22:29N 41°12' W 008°41'0 0.0
2018-Jun-16 22:00N 41°12' W 008°41'0 0.0
2018-Jun-16 21:30N 41°12' W 008°41'0 0.0
2018-Jun-16 21:00N 41°12' W 008°41'0 0.0
2018-Jun-16 20:29N 41°12' W 008°41'0 0.0
2018-Jun-16 20:00N 41°12' W 008°41'0 0.0
2018-Jun-16 19:30N 41°12' W 008°41'0 0.0
2018-Jun-16 19:00N 41°12' W 008°41'0 0.0
2018-Jun-16 18:31N 41°12' W 008°41'0 0.0
2018-Jun-16 18:01N 41°12' W 008°41'0 0.0
2018-Jun-16 17:30N 41°12' W 008°41'0 0.0
2018-Jun-16 17:00N 41°12' W 008°41'0 0.0
2018-Jun-16 16:30N 41°12' W 008°41'0 0.2
2018-Jun-16 16:00N 41°12' W 008°41'1 2.9
2018-Jun-16 15:30N 41°10' W 008°42'2 4.1
2018-Jun-16 15:00N 41°09' W 008°44'1 0.2
2018-Jun-16 08:42N 41°09' W 008°45'1 6.4
2018-Jun-16 08:30N 41°08' W 008°45'7415.3
2018-Jun-16 03:40N 39°60' W 009°24'614.7
2018-Jun-16 03:17N 39°55' W 009°27'415.1
2018-Jun-16 03:00N 39°51' W 009°30'714.8
2018-Jun-16 02:30N 39°45' W 009°34'814.8
2018-Jun-16 01:59N 39°38' W 009°39'714.8
2018-Jun-16 01:30N 39°31' W 009°43'714.3
2018-Jun-16 01:00N 39°24' W 009°43'714.7
2018-Jun-16 00:30N 39°17' W 009°43'714.9
2018-Jun-16 00:00N 39°09' W 009°43'815.4
2018-Jun-15 23:30N 39°02' W 009°43'815.7
2018-Jun-15 23:00N 38°54' W 009°43'815.8
2018-Jun-15 22:30N 38°46' W 009°42'815.6
2018-Jun-15 22:00N 38°38' W 009°41'815.3
2018-Jun-15 21:30N 38°33' W 009°34'816.1
2018-Jun-15 21:00N 38°28' W 009°26'816.7
2018-Jun-15 20:30N 38°22' W 009°18'815.4
2018-Jun-15 20:00N 38°22' W 009°08'917.1
2018-Jun-15 19:30N 38°26' W 008°59'713.4
2018-Jun-15 19:00N 38°31' W 008°53'0 0.3
2018-Jun-15 18:30N 38°31' W 008°52'0 0.0
2018-Jun-15 18:00N 38°31' W 008°52'0 0.0
2018-Jun-15 17:29N 38°31' W 008°52'0 0.0
2018-Jun-15 17:01N 38°31' W 008°52'0 0.0
2018-Jun-15 16:30N 38°31' W 008°52'0 0.0
2018-Jun-15 16:00N 38°31' W 008°52'0 0.0
2018-Jun-15 15:30N 38°31' W 008°52'0 0.0
2018-Jun-15 15:00N 38°31' W 008°52'0 0.0
2018-Jun-15 14:30N 38°31' W 008°52'0 0.0
2018-Jun-15 14:00N 38°31' W 008°52'0 0.0
2018-Jun-15 13:30N 38°31' W 008°52'0 0.0
2018-Jun-15 13:00N 38°31' W 008°52'0 0.0
2018-Jun-15 12:29N 38°31' W 008°52'0 0.0
2018-Jun-15 11:59N 38°31' W 008°52'0 0.0
2018-Jun-15 11:30N 38°31' W 008°52'0 0.0
2018-Jun-15 11:00N 38°31' W 008°52'0 0.0
2018-Jun-15 10:30N 38°31' W 008°52'0 0.0
2018-Jun-15 09:59N 38°31' W 008°52'0 0.0
2018-Jun-15 09:29N 38°31' W 008°52'0 0.0
2018-Jun-15 08:57N 38°31' W 008°52'0 0.0
2018-Jun-15 08:31N 38°31' W 008°52'0 0.0
2018-Jun-15 08:01N 38°31' W 008°52'0 0.0
2018-Jun-15 07:30N 38°31' W 008°52'0 0.0
2018-Jun-15 07:00N 38°31' W 008°52'0 0.0
2018-Jun-15 06:27N 38°31' W 008°52'0 0.0
2018-Jun-15 06:00N 38°31' W 008°52'0 0.0
2018-Jun-15 05:29N 38°31' W 008°52'0 0.0
2018-Jun-15 05:00N 38°31' W 008°52'0 0.0
2018-Jun-15 04:31N 38°31' W 008°52'0 0.0
2018-Jun-15 04:00N 38°31' W 008°52'0 0.0
2018-Jun-15 03:30N 38°31' W 008°52'0 0.0
2018-Jun-15 03:00N 38°31' W 008°52'0 0.0
2018-Jun-15 02:30N 38°31' W 008°52'0 0.0
2018-Jun-15 01:56N 38°31' W 008°52'0 0.0
2018-Jun-15 01:29N 38°31' W 008°52'0 0.0
2018-Jun-15 01:00N 38°31' W 008°52'0 0.0
2018-Jun-15 00:30N 38°31' W 008°52'0 0.0
2018-Jun-14 23:55N 38°31' W 008°52'0 0.0
2018-Jun-14 23:30N 38°31' W 008°52'0 0.0
2018-Jun-14 23:00N 38°31' W 008°52'0 0.0
2018-Jun-14 22:30N 38°31' W 008°52'0 0.0
2018-Jun-14 22:01N 38°31' W 008°52'0 0.0
2018-Jun-14 21:31N 38°31' W 008°52'0 0.0
2018-Jun-14 21:00N 38°31' W 008°52'0 0.0
2018-Jun-14 20:30N 38°31' W 008°52'1 2.2
2018-Jun-14 20:01N 38°31' W 008°54'713.3
2018-Jun-14 19:31N 38°26' W 008°59'714.8
2018-Jun-14 19:01N 38°22' W 009°08'816.0
2018-Jun-14 18:30N 38°22' W 009°18'918.3
2018-Jun-14 18:01N 38°31' W 009°21'816.3
2018-Jun-14 17:30N 38°39' W 009°20'815.0
2018-Jun-14 16:59N 38°42' W 009°10'4 7.4
2018-Jun-14 16:30N 38°43' W 009°07'0 0.0
2018-Jun-14 16:00N 38°43' W 009°07'0 0.0
2018-Jun-14 15:30N 38°43' W 009°07'0 0.0
2018-Jun-14 15:00N 38°43' W 009°07'0 0.0
2018-Jun-14 14:30N 38°43' W 009°07'0 0.0
2018-Jun-14 13:59N 38°43' W 009°07'0 0.0
2018-Jun-14 13:30N 38°43' W 009°07'0 0.0
2018-Jun-14 13:00N 38°43' W 009°07'0 0.0
2018-Jun-14 12:29N 38°43' W 009°07'0 0.0
2018-Jun-14 12:00N 38°43' W 009°07'0 0.0
2018-Jun-14 11:30N 38°43' W 009°07'0 0.0
2018-Jun-14 11:00N 38°43' W 009°07'0 0.0
2018-Jun-14 10:30N 38°43' W 009°07'0 0.0
2018-Jun-14 10:00N 38°43' W 009°07'0 0.0
2018-Jun-14 09:30N 38°43' W 009°07'0 0.0
2018-Jun-14 09:00N 38°43' W 009°07'0 0.0
2018-Jun-14 08:30N 38°43' W 009°07'0 0.0
2018-Jun-14 08:00N 38°43' W 009°07'0 0.0
2018-Jun-14 07:30N 38°43' W 009°07'0 0.0
2018-Jun-14 07:00N 38°43' W 009°07'1 2.3
2018-Jun-14 06:30N 38°42' W 009°07'611.2
2018-Jun-14 06:00N 38°41' W 009°14'5 9.9
2018-Jun-14 05:30N 38°39' W 009°20'611.2
2018-Jun-14 05:00N 38°36' W 009°26'612.3
2018-Jun-14 04:30N 38°36' W 009°34'5 9.2
2018-Jun-14 04:00N 38°34' W 009°39'2 4.6
2018-Jun-14 03:30N 38°35' W 009°42'612.3
2018-Jun-14 03:00N 38°41' W 009°43'714.3
2018-Jun-14 02:30N 38°48' W 009°43'714.4
2018-Jun-14 02:00N 38°56' W 009°44'714.0
2018-Jun-14 01:30N 39°02' W 009°44'714.0
2018-Jun-14 01:00N 39°10' W 009°44'713.8
2018-Jun-14 00:30N 39°16' W 009°44'714.2
2018-Jun-14 00:00N 39°23' W 009°44'814.5
2018-Jun-13 23:27N 39°32' W 009°42'  
Track history (hours):
 
Tides and Currents Weather Stations Pressure Air Temp Water Temp Dewpoint Dewpoint Depression Visibility Wind Speed Wind Dir Waves Ship Positions

Elite

Last reported at 2018-Jun-23 21:30 UTC. Time now 2018-Jun-23 21:43 UTC.
Position N 51°59' E 004°02'.

Length 150 m; draft 7.5 m.

Type: Ship (hazmat cat A). MMSI: 246363000.

Date/timePositionNaut miles runAvg speedWind from/ knotsBaromVisibWave heightAir tempDewpointWater temp
2018-Jun-23 21:30N 51°59' E 004°02'0 0.0
2018-Jun-23 21:00N 51°59' E 004°02'0 0.0
2018-Jun-23 20:30N 51°59' E 004°02'0 0.0
2018-Jun-23 20:00N 51°59' E 004°02'0 0.0
2018-Jun-23 19:30N 51°59' E 004°02'0 0.0
2018-Jun-23 19:00N 51°59' E 004°02'0 0.0
2018-Jun-23 18:30N 51°59' E 004°02'0 0.0
2018-Jun-23 18:00N 51°59' E 004°02'0 0.0
2018-Jun-23 17:30N 51°59' E 004°02'0 0.0
2018-Jun-23 17:00N 51°59' E 004°02'0 0.0
2018-Jun-23 16:30N 51°59' E 004°02'1 2.9
2018-Jun-23 16:00N 51°58' E 004°04'1 1.9
2018-Jun-23 15:30N 51°57' E 004°04'0 0.0
2018-Jun-23 15:00N 51°57' E 004°04'0 0.0
2018-Jun-23 14:30N 51°57' E 004°04'0 0.0
2018-Jun-23 14:00N 51°57' E 004°04'0 0.0
2018-Jun-23 13:30N 51°57' E 004°04'0 0.0
2018-Jun-23 13:00N 51°57' E 004°04'0 0.0
2018-Jun-23 12:30N 51°57' E 004°04'1 1.2
2018-Jun-23 12:00N 51°58' E 004°04'0 0.0
2018-Jun-23 11:30N 51°58' E 004°04'0 0.0
2018-Jun-23 11:00N 51°58' E 004°04'0 0.0
2018-Jun-23 10:30N 51°58' E 004°04'0 0.0
2018-Jun-23 10:00N 51°58' E 004°04'0 0.0
2018-Jun-23 09:30N 51°58' E 004°04'0 0.1
2018-Jun-23 09:00N 51°58' E 004°04'0 0.3
2018-Jun-23 08:30N 51°58' E 004°04'0 0.8
2018-Jun-23 08:00N 51°57' E 004°05'1 1.7
2018-Jun-23 07:30N 51°57' E 004°04'0 0.0
2018-Jun-23 07:00N 51°57' E 004°04'0 0.0
2018-Jun-23 06:30N 51°57' E 004°04'0 0.0
2018-Jun-23 06:00N 51°57' E 004°04'0 0.0
2018-Jun-23 05:30N 51°57' E 004°04'0 0.0
2018-Jun-23 05:00N 51°57' E 004°04'0 0.0
2018-Jun-23 04:30N 51°57' E 004°04'0 0.0
2018-Jun-23 04:00N 51°57' E 004°04'0 0.0
2018-Jun-23 03:30N 51°57' E 004°04'0 0.0
2018-Jun-23 03:00N 51°57' E 004°04'0 0.0
2018-Jun-23 02:30N 51°57' E 004°04'0 0.0
2018-Jun-23 02:00N 51°57' E 004°04'0 0.0
2018-Jun-23 01:30N 51°57' E 004°04'0 0.0
2018-Jun-23 01:00N 51°57' E 004°04'0 0.0
2018-Jun-23 00:30N 51°57' E 004°04'0 0.0
2018-Jun-23 00:00N 51°57' E 004°04'0 0.0
2018-Jun-22 23:30N 51°57' E 004°04'0 0.0
2018-Jun-22 23:00N 51°57' E 004°04'0 0.0
2018-Jun-22 22:30N 51°57' E 004°04'0 0.0
2018-Jun-22 22:00N 51°57' E 004°04'0 0.0
2018-Jun-22 21:30N 51°57' E 004°04'0 0.0
2018-Jun-22 21:00N 51°57' E 004°04'0 0.0
2018-Jun-22 20:30N 51°57' E 004°04'0 0.1
2018-Jun-22 20:00N 51°57' E 004°04'2 4.6
2018-Jun-22 19:30N 51°59' E 004°05'611.3
2018-Jun-22 19:01N 51°56' E 004°13'510.2
2018-Jun-22 18:30N 51°54' E 004°20'3 5.6
2018-Jun-22 18:00N 51°53' E 004°25'0 1.0
2018-Jun-22 17:30N 51°53' E 004°25'0 0.0
2018-Jun-22 17:01N 51°53' E 004°25'0 0.0
2018-Jun-22 16:30N 51°53' E 004°25'0 0.0
2018-Jun-22 16:01N 51°53' E 004°25'0 0.0
2018-Jun-22 15:31N 51°53' E 004°25'0 0.0
2018-Jun-22 15:01N 51°53' E 004°25'0 0.0
2018-Jun-22 14:30N 51°53' E 004°25'0 0.0
2018-Jun-22 14:00N 51°53' E 004°25'0 0.0
2018-Jun-22 13:31N 51°53' E 004°25'0 0.0
2018-Jun-22 13:01N 51°53' E 004°25'0 0.0
2018-Jun-22 12:31N 51°53' E 004°25'0 0.0
2018-Jun-22 12:01N 51°53' E 004°25'0 0.0
2018-Jun-22 11:31N 51°53' E 004°25'0 0.0
2018-Jun-22 11:01N 51°53' E 004°25'0 0.0
2018-Jun-22 10:30N 51°53' E 004°25'0 0.0
2018-Jun-22 10:01N 51°53' E 004°25'0 0.0
2018-Jun-22 09:31N 51°53' E 004°25'0 0.0
2018-Jun-22 09:01N 51°53' E 004°25'0 0.0
2018-Jun-22 08:31N 51°53' E 004°25'0 0.0
2018-Jun-22 08:01N 51°53' E 004°25'0 0.0
2018-Jun-22 07:31N 51°53' E 004°25'0 0.0
2018-Jun-22 07:01N 51°53' E 004°25'0 0.0
2018-Jun-22 06:31N 51°53' E 004°25'0 0.0
2018-Jun-22 06:01N 51°53' E 004°25'0 0.0
2018-Jun-22 05:31N 51°53' E 004°25'0 0.7
2018-Jun-22 05:01N 51°53' E 004°25'0 0.0
2018-Jun-22 04:31N 51°53' E 004°25'0 0.0
2018-Jun-22 04:01N 51°53' E 004°25'0 0.0
2018-Jun-22 03:31N 51°53' E 004°25'0 0.0
2018-Jun-22 03:01N 51°53' E 004°25'0 0.0
2018-Jun-22 02:31N 51°53' E 004°25'0 0.0
2018-Jun-22 02:00N 51°53' E 004°25'0 0.0
2018-Jun-22 01:30N 51°53' E 004°25'0 0.0
2018-Jun-22 01:01N 51°53' E 004°25'0 0.0
2018-Jun-22 00:31N 51°53' E 004°25'0 0.0
2018-Jun-22 00:01N 51°53' E 004°25'0 0.0
2018-Jun-21 23:31N 51°53' E 004°25'0 0.0
2018-Jun-21 23:01N 51°53' E 004°25'0 0.0
2018-Jun-21 22:31N 51°53' E 004°25'0 0.0
2018-Jun-21 22:01N 51°53' E 004°25'0 0.0
2018-Jun-21 21:31N 51°53' E 004°25'0 0.0
2018-Jun-21 21:01N 51°53' E 004°25'0 0.0
2018-Jun-21 20:31N 51°53' E 004°25'1 2.5
2018-Jun-21 20:01N 51°54' E 004°25'1 1.9
2018-Jun-21 19:31N 51°54' E 004°26'0 0.0
2018-Jun-21 19:01N 51°54' E 004°26'0 0.0
2018-Jun-21 18:31N 51°54' E 004°26'0 0.0
2018-Jun-21 18:01N 51°54' E 004°26'0 0.0
2018-Jun-21 17:31N 51°54' E 004°26'0 0.0
2018-Jun-21 17:01N 51°54' E 004°26'0 0.0
2018-Jun-21 16:31N 51°54' E 004°26'0 0.0
2018-Jun-21 16:01N 51°54' E 004°26'0 0.0
2018-Jun-21 15:31N 51°54' E 004°26'0 0.0
2018-Jun-21 15:01N 51°54' E 004°26'0 0.0
2018-Jun-21 14:31N 51°54' E 004°26'0 0.0
2018-Jun-21 14:01N 51°54' E 004°26'0 0.0
2018-Jun-21 13:31N 51°54' E 004°26'1 1.3
2018-Jun-21 13:00N 51°54' E 004°26'4 7.8
2018-Jun-21 12:31N 51°53' E 004°19'4 7.5
2018-Jun-21 12:00N 51°51' E 004°23'5 9.5
2018-Jun-21 11:31N 51°50' E 004°31'4 8.2
2018-Jun-21 11:01N 51°48' E 004°37'4 8.1
2018-Jun-21 10:31N 51°44' E 004°38'3 6.3
2018-Jun-21 10:00N 51°41' E 004°36'0 0.4
2018-Jun-21 09:30N 51°41' E 004°36'0 0.0
2018-Jun-21 08:59N 51°41' E 004°36'0 0.0
2018-Jun-21 08:30N 51°41' E 004°36'0 0.0
2018-Jun-21 08:00N 51°41' E 004°36'0 0.0
2018-Jun-21 07:30N 51°41' E 004°36'0 0.0
2018-Jun-21 07:01N 51°41' E 004°36'0 0.0
2018-Jun-21 06:30N 51°41' E 004°36'0 0.0
2018-Jun-21 06:01N 51°41' E 004°36'0 0.0
2018-Jun-21 05:29N 51°41' E 004°36'0 0.0
2018-Jun-21 05:00N 51°41' E 004°36'0 0.0
2018-Jun-21 04:30N 51°41' E 004°36'0 0.0
2018-Jun-21 04:00N 51°41' E 004°36'0 0.0
2018-Jun-21 03:30N 51°41' E 004°36'0 0.0
2018-Jun-21 03:00N 51°41' E 004°36'0 0.0
2018-Jun-21 02:31N 51°41' E 004°36'0 0.0
2018-Jun-21 02:00N 51°41' E 004°36'0 0.0
2018-Jun-21 01:30N 51°41' E 004°36'0 0.0
2018-Jun-21 01:01N 51°41' E 004°36'0 0.0
2018-Jun-21 00:31N 51°41' E 004°36'0 0.0
2018-Jun-21 00:01N 51°41' E 004°36'0 0.0
2018-Jun-20 23:31N 51°41' E 004°36'0 0.0
2018-Jun-20 23:01N 51°41' E 004°36'0 0.0
2018-Jun-20 22:31N 51°41' E 004°36'0 0.0
2018-Jun-20 22:00N 51°41' E 004°36'0 0.0
2018-Jun-20 21:30N 51°41' E 004°36'0 0.0
2018-Jun-20 20:59N 51°41' E 004°36'0 0.0
2018-Jun-20 20:30N 51°41' E 004°36'0 0.0
2018-Jun-20 20:00N 51°41' E 004°36'0 0.0
2018-Jun-20 19:31N 51°41' E 004°36'0 0.0
2018-Jun-20 18:58N 51°41' E 004°36'0 0.0
2018-Jun-20 18:30N 51°41' E 004°36'0 0.0
2018-Jun-20 18:01N 51°41' E 004°36'0 0.0
2018-Jun-20 17:30N 51°41' E 004°36'0 0.0
2018-Jun-20 17:00N 51°41' E 004°36'0 0.0
2018-Jun-20 16:30N 51°41' E 004°36'0 0.0
2018-Jun-20 16:00N 51°41' E 004°36'0 0.0
2018-Jun-20 15:31N 51°41' E 004°36'0 0.0
2018-Jun-20 15:01N 51°41' E 004°36'0 0.0
2018-Jun-20 14:31N 51°41' E 004°36'0 0.0
2018-Jun-20 14:00N 51°41' E 004°36'0 0.0
2018-Jun-20 13:30N 51°41' E 004°36'0 0.0
2018-Jun-20 13:00N 51°41' E 004°36'0 0.0
2018-Jun-20 12:31N 51°41' E 004°36'0 0.0
2018-Jun-20 12:00N 51°41' E 004°36'0 0.0
2018-Jun-20 11:30N 51°41' E 004°36'1 1.4
2018-Jun-20 11:01N 51°42' E 004°35'3 5.2
2018-Jun-20 10:31N 51°44' E 004°38'5 9.0
2018-Jun-20 10:01N 51°48' E 004°36'510.2
2018-Jun-20 09:30N 51°50' E 004°29'611.1
2018-Jun-20 09:01N 51°52' E 004°20'4 7.7
2018-Jun-20 08:30N 51°54' E 004°16'611.7
2018-Jun-20 08:00N 51°58' E 004°08'816.5
2018-Jun-20 07:30N 52°01' E 003°55'510.5
2018-Jun-20 07:01N 51°59' E 003°47'816.1
2018-Jun-20 06:30N 51°58' E 003°34'816.3
2018-Jun-20 06:00N 51°56' E 003°21'916.2
2018-Jun-20 05:28N 51°53' E 003°08'815.8
2018-Jun-20 04:59N 51°51' E 002°56'815.9
2018-Jun-20 04:30N 51°49' E 002°44'816.2
2018-Jun-20 04:01N 51°50' E 002°31'816.3
2018-Jun-20 03:30N 51°47' E 002°19'816.3
2018-Jun-20 03:00N 51°43' E 002°08'816.3
2018-Jun-20 02:31N 51°38' E 001°57'816.1
2018-Jun-20 02:01N 51°33' E 001°47'815.7
2018-Jun-20 01:30N 51°29' E 001°37'510.6
2018-Jun-20 01:01N 51°25' E 001°31'713.5
2018-Jun-20 00:30N 51°31' E 001°28'611.8
2018-Jun-20 00:01N 51°35' E 001°21'612.2
2018-Jun-19 23:30N 51°34' E 001°12'917.1
2018-Jun-19 23:00N 51°30' E 000°60'917.2
2018-Jun-19 22:30N 51°29' E 000°46'917.8
2018-Jun-19 22:00N 51°30' E 000°32'713.9
2018-Jun-19 21:31N 51°27' E 000°22'1 2.9
2018-Jun-19 21:01N 51°28' E 000°20'0 0.0
2018-Jun-19 20:31N 51°28' E 000°20'0 0.0
2018-Jun-19 20:01N 51°28' E 000°20'0 0.0
2018-Jun-19 19:31N 51°28' E 000°20'0 0.0
2018-Jun-19 19:01N 51°28' E 000°20'0 0.0
2018-Jun-19 18:30N 51°28' E 000°20'0 0.0
2018-Jun-19 18:00N 51°28' E 000°20'0 0.0
2018-Jun-19 17:31N 51°28' E 000°20'0 0.0
2018-Jun-19 17:01N 51°28' E 000°20'0 0.0
2018-Jun-19 16:31N 51°28' E 000°20'0 0.0
2018-Jun-19 16:01N 51°28' E 000°20'0 0.0
2018-Jun-19 15:31N 51°28' E 000°20'0 0.0
2018-Jun-19 15:01N 51°28' E 000°20'0 0.0
2018-Jun-19 14:31N 51°28' E 000°20'0 0.0
2018-Jun-19 14:00N 51°28' E 000°20'0 0.0
2018-Jun-19 13:31N 51°28' E 000°20'0 0.0
2018-Jun-19 13:01N 51°28' E 000°20'0 0.0
2018-Jun-19 12:30N 51°28' E 000°20'0 0.0
2018-Jun-19 12:00N 51°28' E 000°20'0 0.0
2018-Jun-19 11:31N 51°28' E 000°20'0 0.0
2018-Jun-19 11:00N 51°28' E 000°20'0 0.0
2018-Jun-19 10:31N 51°28' E 000°20'0 0.0
2018-Jun-19 10:01N 51°28' E 000°20'0 0.0
2018-Jun-19 09:31N 51°28' E 000°20'0 0.0
2018-Jun-19 09:00N 51°28' E 000°20'1 1.5
2018-Jun-19 08:31N 51°27' E 000°21'4 8.3
2018-Jun-19 08:00N 51°28' E 000°27'510.9
2018-Jun-19 07:30N 51°30' E 000°35'713.5
2018-Jun-19 07:00N 51°29' E 000°46'713.8
2018-Jun-19 06:30N 51°29' E 000°57'713.9
2018-Jun-19 06:00N 51°29' E 001°08'714.9
2018-Jun-19 05:30N 51°29' E 001°20'815.5
2018-Jun-19 05:00N 51°25' E 001°31'612.2
2018-Jun-19 04:30N 51°20' E 001°36'714.4
2018-Jun-19 04:01N 51°13' E 001°38'713.1
2018-Jun-19 03:31N 51°06' E 001°40'917.8
2018-Jun-19 03:00N 50°59' E 001°31'917.6
2018-Jun-19 02:30N 50°52' E 001°24'1116.7
2018-Jun-19 01:52N 50°41' E 001°18'11814.8
2018-Jun-18 17:55N 50°04' W 001°37'1713.8
2018-Jun-18 16:42N 49°59' W 002°01'3013.9
2018-Jun-18 14:33N 49°50' W 002°46'6915.7
2018-Jun-18 10:09N 49°17' W 004°19'316.4
2018-Jun-18 10:00N 49°15' W 004°22'10517.1
2018-Jun-18 03:52N 47°58' W 006°10'617.9
2018-Jun-18 03:30N 47°53' W 006°15'917.4
2018-Jun-18 03:00N 47°45' W 006°22'917.0
2018-Jun-18 02:30N 47°38' W 006°28'39814.9
2018-Jun-16 23:49N 41°12' W 008°47'413.1
2018-Jun-16 23:31N 41°10' W 008°42'2 3.6
2018-Jun-16 22:57N 41°12' W 008°41'0 0.0
2018-Jun-16 22:29N 41°12' W 008°41'0 0.0
2018-Jun-16 22:00N 41°12' W 008°41'0 0.0
2018-Jun-16 21:30N 41°12' W 008°41'0 0.0
2018-Jun-16 21:00N 41°12' W 008°41'0 0.0
2018-Jun-16 20:29N 41°12' W 008°41'0 0.0
2018-Jun-16 20:00N 41°12' W 008°41'0 0.0
2018-Jun-16 19:30N 41°12' W 008°41'0 0.0
2018-Jun-16 19:00N 41°12' W 008°41'0 0.0
2018-Jun-16 18:31N 41°12' W 008°41'0 0.0
2018-Jun-16 18:01N 41°12' W 008°41'0 0.0
2018-Jun-16 17:30N 41°12' W 008°41'0 0.0
2018-Jun-16 17:00N 41°12' W 008°41'0 0.0
2018-Jun-16 16:30N 41°12' W 008°41'0 0.2
2018-Jun-16 16:00N 41°12' W 008°41'1 2.9
2018-Jun-16 15:30N 41°10' W 008°42'2 4.1
2018-Jun-16 15:00N 41°09' W 008°44'1 0.2
2018-Jun-16 08:42N 41°09' W 008°45'1 6.4
2018-Jun-16 08:30N 41°08' W 008°45'7415.3
2018-Jun-16 03:40N 39°60' W 009°24'614.7
2018-Jun-16 03:17N 39°55' W 009°27'415.1
2018-Jun-16 03:00N 39°51' W 009°30'714.8
2018-Jun-16 02:30N 39°45' W 009°34'814.8
2018-Jun-16 01:59N 39°38' W 009°39'714.8
2018-Jun-16 01:30N 39°31' W 009°43'714.3
2018-Jun-16 01:00N 39°24' W 009°43'714.7
2018-Jun-16 00:30N 39°17' W 009°43'714.9
2018-Jun-16 00:00N 39°09' W 009°43'815.4
2018-Jun-15 23:30N 39°02' W 009°43'815.7
2018-Jun-15 23:00N 38°54' W 009°43'815.8
2018-Jun-15 22:30N 38°46' W 009°42'815.6
2018-Jun-15 22:00N 38°38' W 009°41'815.3
2018-Jun-15 21:30N 38°33' W 009°34'816.1
2018-Jun-15 21:00N 38°28' W 009°26'816.7
2018-Jun-15 20:30N 38°22' W 009°18'815.4
2018-Jun-15 20:00N 38°22' W 009°08'917.1
2018-Jun-15 19:30N 38°26' W 008°59'713.4
2018-Jun-15 19:00N 38°31' W 008°53'0 0.3
2018-Jun-15 18:30N 38°31' W 008°52'0 0.0
2018-Jun-15 18:00N 38°31' W 008°52'0 0.0
2018-Jun-15 17:29N 38°31' W 008°52'0 0.0
2018-Jun-15 17:01N 38°31' W 008°52'0 0.0
2018-Jun-15 16:30N 38°31' W 008°52'0 0.0
2018-Jun-15 16:00N 38°31' W 008°52'0 0.0
2018-Jun-15 15:30N 38°31' W 008°52'0 0.0
2018-Jun-15 15:00N 38°31' W 008°52'0 0.0
2018-Jun-15 14:30N 38°31' W 008°52'0 0.0
2018-Jun-15 14:00N 38°31' W 008°52'0 0.0
2018-Jun-15 13:30N 38°31' W 008°52'0 0.0
2018-Jun-15 13:00N 38°31' W 008°52'0 0.0
2018-Jun-15 12:29N 38°31' W 008°52'0 0.0
2018-Jun-15 11:59N 38°31' W 008°52'0 0.0
2018-Jun-15 11:30N 38°31' W 008°52'0 0.0
2018-Jun-15 11:00N 38°31' W 008°52'0 0.0
2018-Jun-15 10:30N 38°31' W 008°52'0 0.0
2018-Jun-15 09:59N 38°31' W 008°52'0 0.0
2018-Jun-15 09:29N 38°31' W 008°52'0 0.0
2018-Jun-15 08:57N 38°31' W 008°52'0 0.0
2018-Jun-15 08:31N 38°31' W 008°52'0 0.0
2018-Jun-15 08:01N 38°31' W 008°52'0 0.0
2018-Jun-15 07:30N 38°31' W 008°52'0 0.0
2018-Jun-15 07:00N 38°31' W 008°52'0 0.0
2018-Jun-15 06:27N 38°31' W 008°52'0 0.0
2018-Jun-15 06:00N 38°31' W 008°52'0 0.0
2018-Jun-15 05:29N 38°31' W 008°52'0 0.0
2018-Jun-15 05:00N 38°31' W 008°52'0 0.0
2018-Jun-15 04:31N 38°31' W 008°52'0 0.0
2018-Jun-15 04:00N 38°31' W 008°52'0 0.0
2018-Jun-15 03:30N 38°31' W 008°52'0 0.0
2018-Jun-15 03:00N 38°31' W 008°52'0 0.0
2018-Jun-15 02:30N 38°31' W 008°52'0 0.0
2018-Jun-15 01:56N 38°31' W 008°52'0 0.0
2018-Jun-15 01:29N 38°31' W 008°52'0 0.0
2018-Jun-15 01:00N 38°31' W 008°52'0 0.0
2018-Jun-15 00:30N 38°31' W 008°52'0 0.0
2018-Jun-14 23:55N 38°31' W 008°52'0 0.0
2018-Jun-14 23:30N 38°31' W 008°52'0 0.0
2018-Jun-14 23:00N 38°31' W 008°52'0 0.0
2018-Jun-14 22:30N 38°31' W 008°52'0 0.0
2018-Jun-14 22:01N 38°31' W 008°52'0 0.0
2018-Jun-14 21:31N 38°31' W 008°52'0 0.0
2018-Jun-14 21:00N 38°31' W 008°52'0 0.0
2018-Jun-14 20:30N 38°31' W 008°52'1 2.2
2018-Jun-14 20:01N 38°31' W 008°54'713.3
2018-Jun-14 19:31N 38°26' W 008°59'714.8
2018-Jun-14 19:01N 38°22' W 009°08'816.0
2018-Jun-14 18:30N 38°22' W 009°18'918.3
2018-Jun-14 18:01N 38°31' W 009°21'816.3
2018-Jun-14 17:30N 38°39' W 009°20'815.0
2018-Jun-14 16:59N 38°42' W 009°10'4 7.4
2018-Jun-14 16:30N 38°43' W 009°07'0 0.0
2018-Jun-14 16:00N 38°43' W 009°07'0 0.0
2018-Jun-14 15:30N 38°43' W 009°07'0 0.0
2018-Jun-14 15:00N 38°43' W 009°07'0 0.0
2018-Jun-14 14:30N 38°43' W 009°07'0 0.0
2018-Jun-14 13:59N 38°43' W 009°07'0 0.0
2018-Jun-14 13:30N 38°43' W 009°07'0 0.0
2018-Jun-14 13:00N 38°43' W 009°07'0 0.0
2018-Jun-14 12:29N 38°43' W 009°07'0 0.0
2018-Jun-14 12:00N 38°43' W 009°07'0 0.0
2018-Jun-14 11:30N 38°43' W 009°07'0 0.0
2018-Jun-14 11:00N 38°43' W 009°07'0 0.0
2018-Jun-14 10:30N 38°43' W 009°07'0 0.0
2018-Jun-14 10:00N 38°43' W 009°07'0 0.0
2018-Jun-14 09:30N 38°43' W 009°07'0 0.0
2018-Jun-14 09:00N 38°43' W 009°07'0 0.0
2018-Jun-14 08:30N 38°43' W 009°07'0 0.0
2018-Jun-14 08:00N 38°43' W 009°07'0 0.0
2018-Jun-14 07:30N 38°43' W 009°07'0 0.0
2018-Jun-14 07:00N 38°43' W 009°07'1 2.3
2018-Jun-14 06:30N 38°42' W 009°07'611.2
2018-Jun-14 06:00N 38°41' W 009°14'5 9.9
2018-Jun-14 05:30N 38°39' W 009°20'611.2
2018-Jun-14 05:00N 38°36' W 009°26'612.3
2018-Jun-14 04:30N 38°36' W 009°34'5 9.2
2018-Jun-14 04:00N 38°34' W 009°39'2 4.6
2018-Jun-14 03:30N 38°35' W 009°42'612.3
2018-Jun-14 03:00N 38°41' W 009°43'714.3
2018-Jun-14 02:30N 38°48' W 009°43'714.4
2018-Jun-14 02:00N 38°56' W 009°44'714.0
2018-Jun-14 01:30N 39°02' W 009°44'714.0
2018-Jun-14 01:00N 39°10' W 009°44'713.8
2018-Jun-14 00:30N 39°16' W 009°44'714.2
2018-Jun-14 00:00N 39°23' W 009°44'814.5
2018-Jun-13 23:27N 39°32' W 009°42'  

Dump ship's entire track history